Time;durP1;ratioP1;P1;durP2;ratioP2;P2;SDS_P1;SDS_P2;PMS_P1;PMS_P2;Temp;Humidity;BMP_temperature;BMP_pressure;BME280_temperature;BME280_humidity;BME280_pressure;Samples;Min_cycle;Max_cycle;Signal;HPM_P1;HPM_P2
2023/09/06 00:00:40;;;;;;;5.95;1.92;;;;;;;35.01;39.57;100109.38;7392882;19;20115;-90
2023/09/06 00:03:06;;;;;;;4.35;1.50;;;;;;;34.97;39.38;100106.25;7394786;19;20022;-90
2023/09/06 00:05:33;;;;;;;3.20;1.70;;;;;;;33.90;40.37;100099.44;7392077;19;20022;-89
2023/09/06 00:07:59;;;;;;;7.10;1.55;;;;;;;35.03;39.42;100103.69;7395983;19;20030;-90
2023/09/06 00:10:25;;;;;;;4.97;1.40;;;;;;;34.96;40.02;100103.97;7391722;19;20006;-91
2023/09/06 00:12:51;;;;;;;6.13;1.00;;;;;;;34.86;39.63;100100.56;7391615;19;20025;-90
2023/09/06 00:15:18;;;;;;;5.43;1.42;;;;;;;31.67;46.55;100117.00;7392294;19;20015;-90
2023/09/06 00:17:44;;;;;;;3.15;0.95;;;;;;;34.85;40.85;100110.63;7393497;19;20016;-90
2023/09/06 00:20:26;;;;;;;2.83;0.98;;;;;;;33.64;42.65;100109.47;7391249;19;20030;-90
2023/09/06 00:23:01;;;;;;;2.53;1.77;;;;;;;35.38;39.75;100103.38;7390952;19;20025;-90
2023/09/06 00:25:31;;;;;;;2.33;1.45;;;;;;;35.42;39.33;100102.81;7391568;19;20030;-90
2023/09/06 00:27:59;;;;;;;2.38;0.93;;;;;;;35.42;39.44;100103.56;7394586;19;20018;-90
2023/09/06 00:30:26;;;;;;;7.93;2.03;;;;;;;35.39;39.38;100104.13;7390532;19;20013;-89
2023/09/06 00:32:55;;;;;;;2.95;1.30;;;;;;;35.39;39.54;100107.75;7392429;19;20010;-89
2023/09/06 00:35:25;;;;;;;4.78;1.55;;;;;;;35.33;39.43;100107.44;7394494;19;20480;-89
2023/09/06 00:37:53;;;;;;;5.22;1.95;;;;;;;35.52;38.95;100101.22;7393874;19;20449;-89
2023/09/06 00:40:21;;;;;;;12.43;1.70;;;;;;;34.84;40.12;100109.13;7393245;19;20386;-90
2023/09/06 00:42:48;;;;;;;5.53;1.60;;;;;;;34.59;40.75;100107.03;7390356;19;20021;-90
2023/09/06 00:45:15;;;;;;;5.07;1.95;;;;;;;35.33;39.34;100104.53;7391013;19;20109;-89
2023/09/06 00:47:42;;;;;;;3.80;1.23;;;;;;;35.64;38.85;100093.16;7394518;19;20057;-90
2023/09/06 00:50:14;;;;;;;8.32;2.20;;;;;;;35.81;38.71;100097.63;7392762;19;20011;-90
2023/09/06 00:52:41;;;;;;;3.30;1.45;;;;;;;35.87;38.52;100100.06;7395296;19;20003;-89
2023/09/06 00:55:09;;;;;;;8.98;1.70;;;;;;;35.37;38.97;100095.34;7390915;19;20007;-89
2023/09/06 00:57:35;;;;;;;3.92;1.50;;;;;;;34.48;40.25;100095.53;7390766;19;20397;-89
2023/09/06 01:00:05;;;;;;;3.75;1.30;;;;;;;34.28;40.27;100098.03;7396562;19;20033;-90
2023/09/06 01:02:32;;;;;;;2.90;1.23;;;;;;;34.19;40.57;100099.72;7393445;19;20081;-89
2023/09/06 01:04:58;;;;;;;2.20;1.48;;;;;;;34.13;40.92;100099.34;7389998;19;20400;-89
2023/09/06 01:07:29;;;;;;;10.30;2.17;;;;;;;34.17;40.36;100090.94;7392957;19;20021;-89
2023/09/06 01:09:55;;;;;;;2.80;1.05;;;;;;;34.14;40.66;100083.53;7389498;19;20042;-89
2023/09/06 01:12:22;;;;;;;5.35;1.17;;;;;;;34.06;40.83;100088.09;7390505;19;20014;-90
2023/09/06 01:14:48;;;;;;;7.13;2.03;;;;;;;33.95;40.86;100083.09;7388942;19;20014;-90
2023/09/06 01:17:17;;;;;;;5.60;1.65;;;;;;;34.05;40.88;100081.56;7390551;19;20022;-89
2023/09/06 01:19:47;;;;;;;6.63;2.38;;;;;;;33.97;40.74;100083.22;7390135;19;20018;-89
2023/09/06 01:22:20;;;;;;;;;;;;;;;33.89;40.86;100080.63;7391085;19;20007;-89
2023/09/06 01:24:48;;;;;;;4.85;1.08;;;;;;;34.55;40.18;100080.78;7390210;19;20325;-89
2023/09/06 01:27:14;;;;;;;6.53;1.13;;;;;;;34.11;40.61;100084.78;7390732;19;20025;-89
2023/09/06 01:29:41;;;;;;;0.98;0.43;;;;;;;33.77;40.95;100088.56;7389461;19;20015;-89
2023/09/06 01:32:07;;;;;;;5.07;1.35;;;;;;;33.76;41.33;100092.84;7392234;19;20512;-89
2023/09/06 01:34:33;;;;;;;2.58;1.23;;;;;;;33.85;40.79;100088.28;7388351;19;20023;-89
2023/09/06 01:36:59;;;;;;;11.65;2.03;;;;;;;33.72;41.04;100086.84;7390620;19;20465;-89
2023/09/06 01:39:26;;;;;;;7.20;1.67;;;;;;;33.67;41.18;100102.44;7391575;19;20019;-90
2023/09/06 01:41:53;;;;;;;6.18;0.85;;;;;;;33.67;41.10;100099.53;7391166;19;20019;-90
2023/09/06 01:44:19;;;;;;;4.28;0.98;;;;;;;33.58;41.21;100104.09;7387319;19;20467;-89
2023/09/06 01:46:45;;;;;;;5.28;1.27;;;;;;;33.83;40.92;100103.38;7397457;19;20021;-90
2023/09/06 01:49:13;;;;;;;11.90;1.65;;;;;;;33.83;41.22;100097.59;7396887;19;20432;-89
2023/09/06 01:51:39;;;;;;;4.30;2.00;;;;;;;33.69;41.11;100102.56;7398185;19;20019;-90
2023/09/06 01:54:07;;;;;;;3.80;1.23;;;;;;;33.66;41.19;100100.91;7394448;19;20046;-89
2023/09/06 01:56:33;;;;;;;3.75;1.33;;;;;;;33.54;41.41;100103.09;7397275;19;20042;-89
2023/09/06 01:58:59;;;;;;;4.15;1.38;;;;;;;33.38;41.49;100097.06;7396406;19;20407;-90
2023/09/06 02:01:25;;;;;;;7.43;1.35;;;;;;;33.18;41.78;100090.06;7396867;19;20010;-89
2023/09/06 02:03:51;;;;;;;5.70;1.08;;;;;;;33.16;41.56;100089.94;7398881;19;20025;-90
2023/09/06 02:06:17;;;;;;;2.75;1.00;;;;;;;33.32;41.75;100093.06;7396326;19;20034;-91
2023/09/06 02:08:44;;;;;;;3.05;1.25;;;;;;;33.24;41.70;100087.56;7397052;19;20010;-90
2023/09/06 02:11:10;;;;;;;2.88;1.50;;;;;;;33.17;41.97;100108.03;7398896;19;20006;-90
2023/09/06 02:13:36;;;;;;;6.80;1.30;;;;;;;33.40;41.48;100102.22;7398930;19;20010;-89
2023/09/06 02:16:04;;;;;;;6.88;2.30;;;;;;;33.42;41.17;100103.09;7396373;19;20039;-90
2023/09/06 02:18:30;;;;;;;3.53;0.77;;;;;;;33.45;41.34;100106.84;7399409;19;20025;-90
2023/09/06 02:20:58;;;;;;;6.63;2.83;;;;;;;33.12;41.56;100101.25;7394648;19;20018;-90
2023/09/06 02:23:24;;;;;;;3.97;1.52;;;;;;;33.12;41.93;100101.25;7394087;19;20031;-89
2023/09/06 02:25:50;;;;;;;2.20;0.65;;;;;;;32.83;42.23;100092.94;7400317;19;20023;-89
2023/09/06 02:28:17;;;;;;;3.17;0.93;;;;;;;33.08;42.01;100092.34;7399995;19;20353;-89
2023/09/06 02:30:45;;;;;;;6.95;1.08;;;;;;;32.88;42.19;100088.19;7395491;19;20010;-90
2023/09/06 02:33:13;;;;;;;5.00;1.77;;;;;;;32.94;41.95;100094.34;7398879;19;20018;-90
2023/09/06 02:35:44;;;;;;;2.42;0.73;;;;;;;32.98;42.10;100090.94;7394735;19;20007;-90
2023/09/06 02:38:11;;;;;;;3.27;1.10;;;;;;;32.98;41.89;100090.94;7396809;19;20011;-90
2023/09/06 02:40:40;;;;;;;4.65;2.20;;;;;;;32.65;42.45;100091.06;7397054;19;20022;-90
2023/09/06 02:43:07;;;;;;;0.77;0.60;;;;;;;32.51;42.65;100085.16;7395726;19;20015;-90
2023/09/06 02:45:37;;;;;;;5.03;1.98;;;;;;;32.37;42.58;100087.13;7398409;19;20031;-90
2023/09/06 02:48:12;;;;;;;5.63;1.35;;;;;;;32.58;42.29;100075.50;7397590;19;20014;-90
2023/09/06 02:50:40;;;;;;;2.05;1.00;;;;;;;32.36;43.24;100076.94;7395209;19;20021;-90
2023/09/06 02:53:19;;;;;;;4.25;0.90;;;;;;;32.33;42.88;100075.31;7394244;19;20022;-90
2023/09/06 02:55:52;;;;;;;0.35;0.35;;;;;;;32.33;42.61;100081.09;7394525;19;20014;-90
2023/09/06 02:58:23;;;;;;;5.88;1.17;;;;;;;32.49;42.67;100084.25;7396889;19;20090;-89
2023/09/06 03:00:57;;;;;;;10.85;1.52;;;;;;;32.31;43.00;100085.97;7394909;19;20018;-89
2023/09/06 03:03:27;;;;;;;4.60;1.52;;;;;;;32.33;43.18;100086.84;7395791;19;20035;-89
2023/09/06 03:05:58;;;;;;;3.95;1.27;;;;;;;32.33;42.93;100092.63;7393552;19;20017;-89
2023/09/06 03:08:25;;;;;;;;;;;;;;;32.41;42.83;100087.38;7398001;19;20010;-89
2023/09/06 03:10:54;;;;;;;2.85;0.93;;;;;;;32.27;42.67;100083.56;7394907;19;20261;-89
2023/09/06 03:13:21;;;;;;;2.97;1.45;;;;;;;32.22;42.76;100073.16;7394225;19;20030;-89
2023/09/06 03:15:51;;;;;;;1.80;0.77;;;;;;;32.20;42.85;100083.81;7394154;19;20016;-90
2023/09/06 03:18:18;;;;;;;2.22;0.88;;;;;;;32.12;42.86;100084.03;7397433;19;20027;-89
2023/09/06 03:20:46;;;;;;;2.63;1.02;;;;;;;32.10;42.99;100081.78;7393087;19;20046;-89
2023/09/06 03:23:23;;;;;;;4.38;2.13;;;;;;;32.44;42.59;100086.13;7392740;19;20050;-89
2023/09/06 03:25:55;;;;;;;1.58;0.85;;;;;;;32.67;42.10;100086.19;7393049;19;20396;-89
2023/09/06 03:28:25;;;;;;;4.40;1.63;;;;;;;32.56;42.29;100091.94;7397194;19;20495;-89
2023/09/06 03:30:54;;;;;;;4.13;1.02;;;;;;;32.54;42.31;100094.69;7397460;19;20015;-89
2023/09/06 03:33:20;;;;;;;2.30;1.40;;;;;;;32.54;42.38;100095.44;7395830;19;20086;-89
2023/09/06 03:35:48;;;;;;;1.38;1.20;;;;;;;32.54;42.45;100101.22;7393389;19;20007;-89
2023/09/06 03:38:17;;;;;;;2.10;1.15;;;;;;;32.57;42.25;100105.72;7395427;19;20015;-89
2023/09/06 03:40:49;;;;;;;2.25;1.00;;;;;;;32.86;41.64;100099.59;7395055;19;20347;-90
2023/09/06 03:43:15;;;;;;;6.55;0.93;;;;;;;32.22;42.21;100099.09;7393180;19;20010;-90
2023/09/06 03:45:50;;;;;;;8.98;1.35;;;;;;;31.65;43.15;100108.22;7392877;19;20018;-89
2023/09/06 03:48:19;;;;;;;3.35;0.63;;;;;;;31.63;43.54;100108.09;7396848;19;20070;-89
2023/09/06 03:50:48;;;;;;;3.10;2.00;;;;;;;31.52;43.81;100109.53;7393183;19;20031;-89
2023/09/06 03:53:14;;;;;;;2.17;1.17;;;;;;;31.43;43.79;100107.47;7391608;19;20332;-89
2023/09/06 03:55:43;;;;;;;2.30;0.85;;;;;;;30.87;45.14;100115.78;7392561;19;20018;-89
2023/09/06 03:58:10;;;;;;;3.95;0.95;;;;;;;31.08;44.66;100124.47;7394027;19;20014;-89
2023/09/06 04:00:41;;;;;;;3.35;1.98;;;;;;;30.55;45.52;100125.72;7395860;19;20022;-90
2023/09/06 04:03:14;;;;;;;4.43;1.85;;;;;;;30.26;46.04;100130.00;7395166;19;20070;-89
2023/09/06 04:05:41;;;;;;;4.60;2.30;;;;;;;30.98;44.82;100129.53;7392684;19;20006;-90
2023/09/06 04:08:09;;;;;;;1.65;1.08;;;;;;;31.22;44.75;100134.09;7395039;19;20017;-90
2023/09/06 04:10:36;;;;;;;2.22;0.98;;;;;;;31.18;45.03;100133.06;7392929;19;20013;-90
2023/09/06 04:13:09;;;;;;;6.55;1.88;;;;;;;31.96;43.03;100141.38;7392516;19;20107;-90
2023/09/06 04:15:37;;;;;;;3.35;1.13;;;;;;;31.18;44.29;100139.59;7391440;19;20016;-90
2023/09/06 04:18:05;;;;;;;3.47;1.27;;;;;;;30.97;44.79;100145.28;7393230;19;20469;-89
2023/09/06 04:20:36;;;;;;;2.40;1.30;;;;;;;30.94;45.19;100142.88;7394430;19;20014;-90
2023/09/06 04:23:06;;;;;;;1.95;1.33;;;;;;;30.96;45.00;100152.41;7394394;19;20021;-90
2023/09/06 04:25:44;;;;;;;4.20;0.80;;;;;;;30.55;45.61;100153.72;7396352;19;20469;-89
2023/09/06 04:28:15;;;;;;;2.78;0.85;;;;;;;30.51;45.84;100148.44;7395716;19;20027;-89
2023/09/06 04:30:47;;;;;;;4.15;1.00;;;;;;;30.04;46.34;100151.34;7389944;19;20023;-90
2023/09/06 04:33:15;;;;;;;7.75;1.45;;;;;;;30.13;46.47;100144.81;7393390;19;20357;-90
2023/09/06 04:36:04;;;;;;;4.20;1.63;;;;;;;29.63;47.24;100147.50;7391472;19;20070;-89
2023/09/06 04:38:31;;;;;;;6.30;1.35;;;;;;;29.63;47.28;100150.38;7394390;19;20011;-90
2023/09/06 04:41:00;;;;;;;5.65;1.80;;;;;;;29.60;47.25;100149.50;7394014;19;20018;-90
2023/09/06 04:43:33;;;;;;;4.40;1.67;;;;;;;29.72;47.15;100150.41;7389963;19;20031;-89
2023/09/06 04:46:00;;;;;;;2.10;1.48;;;;;;;29.82;47.06;100144.69;7390516;19;20011;-90
2023/09/06 04:48:28;;;;;;;2.40;1.08;;;;;;;30.13;46.45;100142.72;7395129;19;20469;-89
2023/09/06 04:50:59;;;;;;;4.07;0.80;;;;;;;29.51;47.17;100130.13;7390456;19;20010;-89
2023/09/06 04:53:27;;;;;;;3.78;1.48;;;;;;;30.59;45.78;100131.00;7389672;19;20049;-90
2023/09/06 04:55:54;;;;;;;4.15;1.17;;;;;;;30.83;44.89;100126.22;7390855;19;20075;-90
2023/09/06 04:58:35;;;;;;;4.13;1.95;;;;;;;29.62;47.09;100123.81;7394079;19;20015;-90
2023/09/06 05:01:06;;;;;;;2.95;1.67;;;;;;;30.04;46.53;100116.88;7390564;19;20018;-91
2023/09/06 05:03:33;;;;;;;;;;;;;;;29.54;46.49;100111.69;7394756;19;20022;-90
2023/09/06 05:06:00;;;;;;;1.67;1.58;;;;;;;30.06;46.43;100114.88;7392066;19;19925;-91
2023/09/06 05:08:27;;;;;;;6.40;2.15;;;;;;;29.67;46.93;100116.25;7392953;19;20361;-90
2023/09/06 05:10:53;;;;;;;3.00;1.02;;;;;;;30.22;46.12;100121.06;7389405;19;20018;-90
2023/09/06 05:13:22;;;;;;;6.15;2.33;;;;;;;30.22;45.83;100115.31;7389835;19;20022;-91
2023/09/06 05:15:49;;;;;;;8.90;2.25;;;;;;;30.13;46.39;100113.22;7390843;19;20015;-89
2023/09/06 05:18:15;;;;;;;5.68;1.50;;;;;;;30.18;46.23;100109.28;7392248;19;20171;-88
2023/09/06 05:20:43;;;;;;;1.65;1.23;;;;;;;30.25;46.27;100109.13;7397868;19;20046;-88
2023/09/06 05:23:17;;;;;;;3.22;1.17;;;;;;;30.29;46.16;100111.53;7400543;19;20015;-88
2023/09/06 05:25:46;;;;;;;4.55;1.77;;;;;;;30.54;45.71;100117.69;7397257;19;20049;-88
2023/09/06 05:28:18;;;;;;;4.25;1.88;;;;;;;30.09;46.60;100119.44;7401182;19;20018;-88
2023/09/06 05:30:49;;;;;;;3.75;1.30;;;;;;;30.47;45.92;100113.63;7396715;19;20346;-89
2023/09/06 05:33:17;;;;;;;4.35;1.50;;;;;;;30.20;46.31;100129.56;7398827;19;20011;-88
2023/09/06 05:35:44;;;;;;;3.63;1.27;;;;;;;30.26;46.46;100121.38;7398873;19;20018;-89
2023/09/06 05:38:12;;;;;;;1.75;0.95;;;;;;;29.92;46.87;100128.97;7397418;19;20018;-88
2023/09/06 05:40:43;;;;;;;3.10;1.58;;;;;;;30.47;46.31;100130.16;7399956;19;20014;-89
2023/09/06 05:43:13;;;;;;;7.28;1.58;;;;;;;31.54;44.77;100141.34;7398183;19;20003;-89
2023/09/06 05:45:39;;;;;;;3.45;1.98;;;;;;;30.90;45.48;100134.72;7399322;19;20010;-88
2023/09/06 05:48:06;;;;;;;2.40;1.63;;;;;;;31.85;44.14;100132.63;7398585;19;20086;-89
2023/09/06 05:50:32;;;;;;;3.58;1.77;;;;;;;31.40;44.76;100137.50;7399765;19;20353;-88
2023/09/06 05:52:59;;;;;;;2.85;0.95;;;;;;;31.38;44.78;100135.22;7398169;19;20353;-89
2023/09/06 05:55:25;;;;;;;3.58;1.77;;;;;;;32.03;44.16;100136.78;7399674;19;20544;-88
2023/09/06 05:57:54;;;;;;;5.68;2.17;;;;;;;33.47;42.23;100141.63;7397296;19;20042;-88
2023/09/06 06:00:21;;;;;;;5.85;1.13;;;;;;;34.22;40.58;100138.91;7398826;19;20032;-89
2023/09/06 06:02:55;;;;;;;10.25;2.70;;;;;;;33.93;41.33;100153.09;7397674;19;20023;-89
2023/09/06 06:05:22;;;;;;;10.60;2.28;;;;;;;33.95;41.03;100153.22;7400187;19;20073;-89
2023/09/06 06:07:48;;;;;;;8.05;2.22;;;;;;;34.61;40.96;100149.81;7398422;19;20006;-89
2023/09/06 06:10:14;;;;;;;4.32;2.35;;;;;;;34.48;40.78;100147.59;7400767;19;20021;-89
2023/09/06 06:12:41;;;;;;;4.32;1.40;;;;;;;34.43;40.97;100157.44;7398998;19;20020;-88
2023/09/06 06:15:09;;;;;;;5.13;1.48;;;;;;;34.64;41.09;100165.88;7397450;19;20022;-89
2023/09/06 06:17:35;;;;;;;7.18;3.10;;;;;;;34.84;40.49;100152.53;7398813;19;20480;-87
2023/09/06 06:20:03;;;;;;;8.50;1.90;;;;;;;35.03;40.55;100155.06;7398689;19;20517;-87
2023/09/06 06:22:29;;;;;;;5.88;2.50;;;;;;;35.35;40.03;100162.59;7397708;19;20018;-87
2023/09/06 06:25:00;;;;;;;11.50;2.58;;;;;;;35.30;39.81;100166.69;7399686;19;20035;-88
2023/09/06 06:27:26;;;;;;;5.90;1.60;;;;;;;35.14;39.95;100165.81;7396609;19;20334;-88
2023/09/06 06:29:52;;;;;;;3.72;1.65;;;;;;;35.14;39.93;100167.94;7397291;19;20011;-88
2023/09/06 06:32:19;;;;;;;6.80;2.38;;;;;;;35.61;39.21;100172.69;7396512;19;20011;-89
2023/09/06 06:34:49;;;;;;;4.85;2.47;;;;;;;35.65;39.64;100170.00;7392934;19;20010;-89
2023/09/06 06:37:16;;;;;;;8.02;2.22;;;;;;;36.02;38.74;100174.81;7398308;19;20042;-89
2023/09/06 06:39:42;;;;;;;3.22;1.88;;;;;;;36.40;38.52;100179.63;7397195;19;20353;-88
2023/09/06 06:42:08;;;;;;;6.07;2.53;;;;;;;36.00;38.62;100171.78;7400676;19;20018;-89
2023/09/06 06:44:45;;;;;;;7.25;2.45;;;;;;;35.70;39.52;100185.44;7392880;19;20606;-88
2023/09/06 06:47:12;;;;;;;7.68;2.40;;;;;;;35.68;39.22;100186.09;7396344;19;20018;-87
2023/09/06 06:49:38;;;;;;;3.55;1.73;;;;;;;35.93;39.05;100196.78;7396823;19;20014;-88
2023/09/06 06:52:04;;;;;;;6.75;1.55;;;;;;;36.05;38.87;100190.91;7400412;19;20018;-88
2023/09/06 06:54:31;;;;;;;7.45;2.03;;;;;;;36.18;38.97;100190.09;7394297;19;20042;-88
2023/09/06 06:56:57;;;;;;;10.60;2.35;;;;;;;36.30;38.87;100185.66;7394684;19;20022;-87
2023/09/06 06:59:23;;;;;;;6.63;2.47;;;;;;;36.39;38.94;100192.59;7396019;19;20014;-84
2023/09/06 07:01:49;;;;;;;6.25;1.33;;;;;;;36.24;39.33;100196.22;7398185;19;20587;-90
2023/09/06 07:04:15;;;;;;;9.07;2.13;;;;;;;36.15;39.31;100189.25;7394284;19;20476;-89
2023/09/06 07:06:41;;;;;;;5.90;2.05;;;;;;;36.28;39.30;100193.50;7396382;19;20023;-88
2023/09/06 07:09:08;;;;;;;6.53;1.60;;;;;;;36.26;39.36;100196.31;7393556;19;20026;-88
2023/09/06 07:11:35;;;;;;;6.20;3.38;;;;;;;36.27;39.58;100189.13;7395060;19;20047;-88
2023/09/06 07:14:02;;;;;;;5.35;2.55;;;;;;;36.33;39.54;100193.06;7394330;19;20350;-88
2023/09/06 07:16:30;;;;;;;11.18;2.72;;;;;;;36.50;39.51;100197.53;7395442;19;20014;-88
2023/09/06 07:18:56;;;;;;;4.95;1.83;;;;;;;36.44;39.60;100194.34;7391429;19;20382;-87
2023/09/06 07:21:22;;;;;;;10.68;2.08;;;;;;;36.66;39.58;100194.69;7395921;19;20042;-87
2023/09/06 07:23:48;;;;;;;7.78;3.17;;;;;;;36.73;39.62;100205.94;7391709;19;20030;-88
2023/09/06 07:26:15;;;;;;;9.07;2.67;;;;;;;36.99;39.24;100200.66;7394360;19;20018;-88
2023/09/06 07:28:43;;;;;;;4.32;1.52;;;;;;;37.18;39.36;100206.66;7393468;19;20026;-88
2023/09/06 07:31:10;;;;;;;3.03;1.60;;;;;;;37.23;39.37;100205.41;7394890;19;20019;-88
2023/09/06 07:33:37;;;;;;;3.25;1.35;;;;;;;37.18;39.32;100209.56;7397358;19;20165;-88
2023/09/06 07:36:04;;;;;;;10.60;3.05;;;;;;;37.34;38.92;100203.00;7392776;19;20010;-88
2023/09/06 07:38:30;;;;;;;5.70;2.53;;;;;;;37.40;39.21;100203.28;7397473;19;20032;-88
2023/09/06 07:41:05;;;;;;;8.25;2.47;;;;;;;37.49;39.33;100202.97;7394614;19;20039;-88
2023/09/06 07:43:32;;;;;;;5.85;1.95;;;;;;;37.53;39.11;100206.09;7394181;19;20030;-88
2023/09/06 07:45:59;;;;;;;9.82;2.92;;;;;;;37.52;39.60;100210.41;7396230;19;20011;-88
2023/09/06 07:48:26;;;;;;;5.25;1.67;;;;;;;38.07;39.11;100207.75;7396352;19;20371;-88
2023/09/06 07:50:53;;;;;;;1.63;1.40;;;;;;;38.20;38.97;100212.66;7392062;19;20039;-88
2023/09/06 07:53:20;;;;;;;7.90;2.72;;;;;;;38.34;38.67;100212.53;7393536;19;20508;-88
2023/09/06 07:55:47;;;;;;;5.13;2.17;;;;;;;38.40;38.47;100210.63;7395682;19;20027;-88
2023/09/06 07:58:14;;;;;;;6.63;2.45;;;;;;;38.51;38.71;100212.53;7395907;19;20477;-89
2023/09/06 08:00:41;;;;;;;2.67;1.23;;;;;;;38.61;38.24;100218.78;7391433;19;20015;-88
2023/09/06 08:03:07;;;;;;;6.70;2.28;;;;;;;38.56;38.53;100217.09;7394314;19;20423;-88
2023/09/06 08:05:35;;;;;;;5.50;1.70;;;;;;;38.75;39.09;100214.97;7394938;19;20022;-88
2023/09/06 08:08:02;;;;;;;4.38;1.40;;;;;;;39.11;38.66;100222.22;7394539;19;20020;-88
2023/09/06 08:10:29;;;;;;;2.45;1.48;;;;;;;39.80;38.02;100220.47;7395459;19;20023;-88
2023/09/06 08:12:55;;;;;;;10.93;3.25;;;;;;;39.84;38.26;100223.53;7392232;19;20018;-88
2023/09/06 08:15:23;;;;;;;4.18;1.73;;;;;;;39.94;37.73;100218.03;7390557;19;20074;-88
2023/09/06 08:17:51;;;;;;;9.00;2.55;;;;;;;39.94;37.96;100217.28;7392934;19;20018;-87
2023/09/06 08:20:18;;;;;;;3.28;1.13;;;;;;;39.89;38.35;100222.25;7395640;19;20018;-88
2023/09/06 08:22:47;;;;;;;10.90;1.08;;;;;;;39.41;38.93;100229.22;7390821;19;20014;-88
2023/09/06 08:25:18;;;;;;;6.60;1.52;;;;;;;39.12;39.87;100235.34;7391790;19;20098;-88
2023/09/06 08:27:51;;;;;;;3.42;1.33;;;;;;;39.02;39.77;100226.97;7394515;19;20050;-88
2023/09/06 08:30:19;;;;;;;5.30;1.73;;;;;;;38.84;40.01;100228.41;7392742;19;20035;-88
2023/09/06 08:32:48;;;;;;;5.43;2.10;;;;;;;38.29;40.42;100223.25;7395957;19;20022;-89
2023/09/06 08:35:14;;;;;;;10.40;2.33;;;;;;;38.26;40.42;100221.69;7390967;19;20040;-88
2023/09/06 08:37:41;;;;;;;5.75;1.60;;;;;;;37.27;42.05;100228.13;7393258;19;20006;-88
2023/09/06 08:40:08;;;;;;;3.80;1.73;;;;;;;37.23;42.90;100228.66;7392071;19;20027;-88
2023/09/06 08:42:35;;;;;;;7.72;2.20;;;;;;;37.50;42.62;100230.66;7394643;19;20012;-88
2023/09/06 08:45:05;;;;;;;8.32;2.17;;;;;;;37.38;43.33;100233.03;7393297;19;20393;-88
2023/09/06 08:47:32;;;;;;;14.05;2.75;;;;;;;37.45;43.04;100242.75;7392757;19;20446;-89
2023/09/06 08:50:09;;;;;;;3.97;1.45;;;;;;;37.20;43.45;100230.00;7391048;19;20017;-88
2023/09/06 08:52:50;;;;;;;5.75;1.95;;;;;;;37.16;44.04;100229.81;7392707;19;20014;-88
2023/09/06 08:55:21;;;;;;;10.32;2.30;;;;;;;37.02;44.44;100232.03;7403452;19;20600;-89
2023/09/06 08:58:07;;;;;;;5.65;1.38;;;;;;;37.06;45.01;100228.56;7403679;19;20023;-89
2023/09/06 09:00:42;;;;;;;5.78;0.95;;;;;;;37.05;45.54;100227.06;7397421;19;20018;-90
2023/09/06 09:03:11;;;;;;;4.05;1.15;;;;;;;37.11;45.70;100224.44;7399447;19;20488;-89
2023/09/06 09:05:51;;;;;;;5.75;1.42;;;;;;;38.19;44.30;100219.13;7397797;19;20014;-90
2023/09/06 09:08:31;;;;;;;5.47;1.45;;;;;;;38.27;44.21;100214.44;7402391;19;20031;-89
2023/09/06 09:11:20;;;;;;;4.95;1.98;;;;;;;38.13;44.22;100215.97;7398568;19;20026;-90
2023/09/06 09:13:47;;;;;;;4.32;1.90;;;;;;;38.34;44.21;100219.09;7396817;19;20021;-89
2023/09/06 09:16:15;;;;;;;4.25;1.30;;;;;;;38.65;43.90;100213.13;7400856;19;20480;-88
2023/09/06 09:18:44;;;;;;;2.83;1.17;;;;;;;38.46;43.89;100218.84;7398845;19;20028;-88
2023/09/06 09:21:11;;;;;;;8.27;2.53;;;;;;;38.52;44.09;100211.13;7399485;19;20086;-88
2023/09/06 09:23:49;;;;;;;8.38;2.17;;;;;;;38.57;43.57;100218.59;7396898;19;20014;-89
2023/09/06 09:26:19;;;;;;;3.90;1.35;;;;;;;38.36;44.09;100218.44;7401979;19;20019;-88
2023/09/06 09:28:46;;;;;;;5.38;1.70;;;;;;;38.20;43.43;100226.47;7399346;19;20014;-89
2023/09/06 09:31:15;;;;;;;2.63;1.00;;;;;;;38.24;43.68;100223.72;7403380;19;20125;-88
2023/09/06 09:33:50;;;;;;;3.92;1.35;;;;;;;37.98;44.83;100217.53;7400089;19;20018;-96
2023/09/06 09:36:19;;;;;;;10.35;1.77;;;;;;;39.36;43.23;100218.81;7398930;19;20010;-91
2023/09/06 09:38:50;;;;;;;6.00;1.75;;;;;;;39.96;41.38;100218.13;7395067;19;20018;-89
2023/09/06 09:41:24;;;;;;;7.13;2.55;;;;;;;39.98;41.98;100223.28;7402342;19;20022;-89
2023/09/06 09:44:13;;;;;;;5.82;1.98;;;;;;;41.11;40.63;100219.00;7395174;19;20026;-89
2023/09/06 09:46:43;;;;;;;6.75;1.63;;;;;;;42.14;39.76;100222.00;7398418;19;20371;-91
2023/09/06 09:49:11;;;;;;;4.20;1.90;;;;;;;41.50;40.41;100220.91;7396561;19;20019;-89
2023/09/06 09:51:42;;;;;;;2.03;0.88;;;;;;;41.65;39.80;100230.84;7396208;19;20011;-90
2023/09/06 09:54:13;;;;;;;5.35;1.85;;;;;;;41.83;39.52;100228.44;7393831;19;20101;-92
2023/09/06 09:56:44;;;;;;;4.93;1.10;;;;;;;41.56;40.56;100233.53;7397115;19;20382;-91
2023/09/06 09:59:12;;;;;;;5.78;0.85;;;;;;;41.73;39.80;100231.84;7396531;19;20032;-91
2023/09/06 10:01:39;;;;;;;3.45;0.50;;;;;;;42.23;39.38;100223.69;7395518;19;20035;-91
2023/09/06 10:04:06;;;;;;;4.47;1.05;;;;;;;42.57;38.89;100209.16;7395348;19;20460;-91
2023/09/06 10:06:33;;;;;;;3.28;1.15;;;;;;;42.60;39.27;100214.41;7395762;19;20089;-90
2023/09/06 10:09:07;;;;;;;23.98;1.20;;;;;;;42.69;38.11;100221.91;7397092;19;20017;-93
2023/09/06 10:11:37;;;;;;;2.60;1.05;;;;;;;42.80;38.41;100228.75;7399723;19;20011;-91
2023/09/06 10:14:05;;;;;;;5.00;1.65;;;;;;;42.96;38.76;100220.38;7394364;19;20078;-92
2023/09/06 10:16:32;;;;;;;9.40;2.45;;;;;;;43.25;38.45;100216.66;7398940;19;20077;-92
2023/09/06 10:18:58;;;;;;;1.70;0.52;;;;;;;43.31;37.55;100221.88;7397033;19;20026;-91
2023/09/06 10:21:27;;;;;;;5.30;1.05;;;;;;;43.44;36.81;100218.50;7395737;19;20043;-92
2023/09/06 10:23:54;;;;;;;3.97;1.15;;;;;;;43.57;36.02;100216.56;7393520;19;20521;-91
2023/09/06 10:26:30;;;;;;;3.70;1.40;;;;;;;43.74;35.57;100208.81;7396563;19;20398;-90
2023/09/06 10:28:57;;;;;;;5.25;1.73;;;;;;;43.72;35.81;100206.59;7395123;19;20011;-90
2023/09/06 10:34:11;;;;;;;8.32;1.95;;;;;;;44.15;34.27;100202.25;7394139;19;20030;-90
2023/09/06 10:38:01;;;;;;;11.13;1.85;;;;;;;43.40;36.42;100203.00;7418733;19;20378;-87
2023/09/06 10:40:49;;;;;;;3.78;1.10;;;;;;;42.53;37.25;100198.13;7425377;19;20022;-87
2023/09/06 15:56:31;;;;;;;5.70;1.30;;;;;;;46.24;41.00;100119.63;7394669;19;20054;-53
2023/09/06 15:58:57;;;;;;;3.72;1.05;;;;;;;46.26;40.75;100107.88;7399986;19;20010;-53
2023/09/06 16:01:23;;;;;;;2.05;0.68;;;;;;;46.33;40.78;100112.34;7398024;19;20328;-53
2023/09/06 16:03:50;;;;;;;6.80;1.38;;;;;;;46.36;40.41;100121.94;7403237;19;20014;-53
2023/09/06 16:06:16;;;;;;;3.25;1.25;;;;;;;46.26;40.37;100122.59;7398502;19;20011;-53
2023/09/06 16:08:42;;;;;;;3.53;1.67;;;;;;;46.22;40.60;100127.72;7401373;19;20038;-53
2023/09/06 16:11:08;;;;;;;4.43;1.17;;;;;;;46.18;40.18;100115.88;7399766;19;20022;-53
2023/09/06 16:13:34;;;;;;;4.68;1.05;;;;;;;46.16;40.07;100115.88;7398646;19;20010;-53
2023/09/06 16:16:00;;;;;;;2.90;0.98;;;;;;;45.84;40.36;100116.34;7396912;19;20007;-53
2023/09/06 16:18:28;;;;;;;3.00;0.68;;;;;;;46.28;39.59;100128.50;7396294;19;20014;-53
2023/09/06 16:20:54;;;;;;;1.77;0.73;;;;;;;46.18;39.26;100119.56;7397936;19;20011;-53
2023/09/06 16:23:20;;;;;;;2.75;0.77;;;;;;;46.21;39.20;100129.94;7398487;19;20011;-54
2023/09/06 16:25:46;;;;;;;1.67;0.85;;;;;;;46.10;39.28;100130.56;7401775;19;20368;-54
2023/09/06 16:28:12;;;;;;;4.00;0.80;;;;;;;46.11;39.29;100138.69;7401635;19;20459;-54
2023/09/06 16:30:41;;;;;;;5.03;1.40;;;;;;;46.00;39.33;100133.44;7400740;19;20014;-54
2023/09/06 16:33:10;;;;;;;2.00;0.95;;;;;;;46.36;38.91;100134.47;7397000;19;20021;-54
2023/09/06 16:35:37;;;;;;;2.22;0.77;;;;;;;46.80;37.86;100131.06;7396961;19;20063;-54
2023/09/06 16:38:07;;;;;;;3.63;1.25;;;;;;;46.78;37.97;100139.91;7400877;19;20032;-54
2023/09/06 16:40:34;;;;;;;4.30;0.68;;;;;;;46.67;38.12;100141.34;7401475;19;20007;-54
2023/09/06 16:43:00;;;;;;;1.35;0.73;;;;;;;46.94;38.14;100131.13;7397072;19;20015;-54
2023/09/06 16:45:27;;;;;;;2.47;1.10;;;;;;;47.44;37.66;100139.47;7396741;19;20405;-54
2023/09/06 16:47:53;;;;;;;3.58;0.77;;;;;;;47.28;37.57;100141.59;7397986;19;20022;-54